createdAt,value
2023-05-18T00:02:54.344Z,21.30
2023-05-18T00:06:04.620Z,21.30
2023-05-18T00:09:12.552Z,21.30
2023-05-18T00:12:20.724Z,21.30
2023-05-18T00:15:28.650Z,21.30
2023-05-18T00:18:38.314Z,21.30
2023-05-18T00:21:47.175Z,21.30
2023-05-18T00:24:55.210Z,21.20
2023-05-18T00:28:03.338Z,21.20
2023-05-18T00:31:11.336Z,21.20
2023-05-18T00:34:20.646Z,21.20
2023-05-18T00:37:28.679Z,21.20
2023-05-18T00:40:36.541Z,21.20
2023-05-18T00:43:44.521Z,21.20
2023-05-18T00:46:52.915Z,21.20
2023-05-18T00:50:02.434Z,21.20
2023-05-18T00:53:11.578Z,21.20
2023-05-18T00:56:19.660Z,21.20
2023-05-18T00:59:29.554Z,21.20
2023-05-18T01:02:42.522Z,21.20
2023-05-18T01:05:55.641Z,21.20
2023-05-18T01:09:04.247Z,21.20
2023-05-18T01:12:22.788Z,21.20
2023-05-18T01:15:33.676Z,21.20
2023-05-18T01:18:45.673Z,21.20
2023-05-18T01:21:58.646Z,21.20
2023-05-18T01:25:14.692Z,21.10
2023-05-18T01:28:26.403Z,21.20
2023-05-18T01:31:35.210Z,21.10
2023-05-18T01:34:44.087Z,21.20
2023-05-18T01:37:52.178Z,21.10
2023-05-18T01:41:03.359Z,21.10
2023-05-18T01:44:15.858Z,21.10
2023-05-18T01:47:23.843Z,21.10
2023-05-18T01:50:37.757Z,21.10
2023-05-18T01:53:47.724Z,21.10
2023-05-18T01:56:56.049Z,21.10
2023-05-18T02:00:10.064Z,21.10
2023-05-18T02:03:23.974Z,21.20
2023-05-18T02:06:31.980Z,21.20
2023-05-18T02:09:39.811Z,21.10
2023-05-18T02:12:49.113Z,21.10
2023-05-18T02:15:58.740Z,21.20
2023-05-18T02:19:07.191Z,21.20
2023-05-18T02:22:15.115Z,21.20
2023-05-18T02:25:22.873Z,21.20
2023-05-18T02:28:30.857Z,21.20
2023-05-18T02:31:40.250Z,21.20
2023-05-18T02:34:50.152Z,21.20
2023-05-18T02:37:58.280Z,21.20
2023-05-18T02:41:06.893Z,21.20
2023-05-18T02:44:15.029Z,21.20
2023-05-18T02:47:25.019Z,21.20
2023-05-18T02:50:32.978Z,21.20
2023-05-18T02:53:40.986Z,21.20
2023-05-18T02:56:56.775Z,21.20
2023-05-18T03:00:18.206Z,21.20
2023-05-18T03:03:28.382Z,21.20
2023-05-18T03:06:38.319Z,21.20
2023-05-18T03:09:46.384Z,21.20
2023-05-18T03:12:54.745Z,21.20
2023-05-18T03:16:03.255Z,21.20
2023-05-18T03:19:14.354Z,21.20
2023-05-18T03:22:22.849Z,21.20
2023-05-18T03:25:32.787Z,21.20
2023-05-18T03:28:42.504Z,21.20
2023-05-18T03:31:50.434Z,21.20
2023-05-18T03:35:01.023Z,21.20
2023-05-18T03:38:09.606Z,21.20
2023-05-18T03:41:20.246Z,21.20
2023-05-18T03:44:28.453Z,21.20
2023-05-18T03:47:37.126Z,21.20
2023-05-18T03:50:46.976Z,21.20
2023-05-18T03:53:55.964Z,21.20
2023-05-18T03:57:03.839Z,21.20
2023-05-18T04:00:13.569Z,21.20
2023-05-18T04:03:28.141Z,21.20
2023-05-18T04:06:40.087Z,21.20
2023-05-18T04:09:48.906Z,21.20
2023-05-18T04:12:56.740Z,21.20
2023-05-18T04:16:05.173Z,21.20
2023-05-18T04:19:13.659Z,21.30
2023-05-18T04:22:23.117Z,21.30
2023-05-18T04:25:31.548Z,21.30
2023-05-18T04:28:40.160Z,21.30
2023-05-18T04:31:48.846Z,21.30
2023-05-18T04:34:58.481Z,21.30
2023-05-18T04:38:08.273Z,21.30
2023-05-18T04:41:20.604Z,21.30
2023-05-18T04:44:29.797Z,21.30
2023-05-18T04:47:40.879Z,21.30
2023-05-18T04:50:48.737Z,21.30
2023-05-18T04:53:57.947Z,21.30
2023-05-18T04:57:07.078Z,21.30
2023-05-18T05:00:16.113Z,21.30
2023-05-18T05:03:24.108Z,21.30
2023-05-18T05:06:32.130Z,21.30
2023-05-18T05:09:41.296Z,21.30
2023-05-18T05:12:50.060Z,21.30
2023-05-18T05:15:58.014Z,21.30
2023-05-18T05:19:07.194Z,21.30
2023-05-18T05:22:16.023Z,21.30
2023-05-18T05:25:25.605Z,21.40
2023-05-18T05:28:33.642Z,21.30
2023-05-18T05:31:41.705Z,21.30
2023-05-18T05:34:51.682Z,21.40
2023-05-18T05:38:01.248Z,21.40
2023-05-18T05:41:10.743Z,21.40
2023-05-18T05:44:19.180Z,21.40
2023-05-18T05:47:28.094Z,21.40
2023-05-18T05:50:35.860Z,21.40
2023-05-18T05:53:47.476Z,21.40
2023-05-18T05:56:58.758Z,21.40
2023-05-18T06:00:10.371Z,21.40
2023-05-18T06:03:29.358Z,21.40
2023-05-18T06:06:40.794Z,21.40
2023-05-18T06:09:50.238Z,21.40
2023-05-18T06:13:00.650Z,21.40
2023-05-18T06:16:21.988Z,21.50
2023-05-18T06:19:29.961Z,21.50
2023-05-18T06:22:37.918Z,21.50
2023-05-18T06:25:57.754Z,21.50
2023-05-18T06:29:30.611Z,21.50
2023-05-18T06:32:48.801Z,21.50
2023-05-18T06:35:57.195Z,21.50
2023-05-18T06:39:05.647Z,21.60
2023-05-18T06:42:13.588Z,21.60
2023-05-18T06:45:36.161Z,21.60
2023-05-18T06:49:11.209Z,21.60
2023-05-18T06:52:19.340Z,21.60
2023-05-18T06:55:27.619Z,21.60
2023-05-18T06:58:36.232Z,21.60
2023-05-18T07:01:47.846Z,21.60
2023-05-18T07:04:57.983Z,21.70
2023-05-18T07:08:07.221Z,21.70
2023-05-18T07:11:15.678Z,21.70
2023-05-18T07:14:23.910Z,21.70
2023-05-18T07:17:33.350Z,21.70
2023-05-18T07:20:41.190Z,21.70
2023-05-18T07:23:49.068Z,21.70
2023-05-18T07:26:58.299Z,21.80
2023-05-18T07:30:09.319Z,21.80
2023-05-18T07:33:18.799Z,21.80
2023-05-18T07:36:28.548Z,21.80
2023-05-18T07:39:36.309Z,21.80
2023-05-18T07:42:45.428Z,21.80
2023-05-18T07:45:53.508Z,21.80
2023-05-18T07:49:02.901Z,21.80
2023-05-18T07:52:10.989Z,21.80
2023-05-18T07:55:18.823Z,21.80
2023-05-18T07:58:26.676Z,21.80
2023-05-18T08:01:35.241Z,21.80
2023-05-18T08:04:44.615Z,21.90
2023-05-18T08:07:52.621Z,21.90
2023-05-18T08:11:00.581Z,21.90
2023-05-18T08:14:08.578Z,21.90
2023-05-18T08:17:16.331Z,21.90
2023-05-18T08:20:25.639Z,21.80
2023-05-18T08:23:33.541Z,21.90
2023-05-18T08:26:41.727Z,21.90
2023-05-18T08:29:49.942Z,21.90
2023-05-18T08:32:57.892Z,21.90
2023-05-18T08:36:08.022Z,21.90
2023-05-18T08:39:16.180Z,21.90
2023-05-18T08:42:29.588Z,21.90
2023-05-18T08:45:45.420Z,22.00
2023-05-18T08:48:54.387Z,22.00
2023-05-18T08:52:05.495Z,22.00
2023-05-18T08:55:13.925Z,22.00
2023-05-18T08:58:23.571Z,22.00
2023-05-18T09:01:31.490Z,22.00
2023-05-18T09:04:39.955Z,22.00
2023-05-18T09:07:49.402Z,22.00
2023-05-18T09:10:58.409Z,22.00
2023-05-18T09:14:06.539Z,22.00
2023-05-18T09:17:14.492Z,22.00
2023-05-18T09:20:22.502Z,22.00
2023-05-18T09:23:32.149Z,22.00
2023-05-18T09:26:40.779Z,22.00
2023-05-18T09:29:55.012Z,22.00
2023-05-18T09:33:03.239Z,22.00
2023-05-18T09:36:12.144Z,22.00
2023-05-18T09:39:21.448Z,22.10
2023-05-18T09:42:35.959Z,22.10
2023-05-18T09:45:44.264Z,22.10
2023-05-18T09:48:52.878Z,22.10
2023-05-18T09:52:00.985Z,22.10
2023-05-18T09:55:11.223Z,22.10
2023-05-18T09:58:19.266Z,22.10
2023-05-18T10:01:27.189Z,22.10
2023-05-18T10:04:39.201Z,22.10
2023-05-18T10:07:48.484Z,22.10
2023-05-18T10:10:57.676Z,22.10
2023-05-18T10:14:05.599Z,22.10
2023-05-18T10:17:16.232Z,22.10
2023-05-18T10:20:26.855Z,22.10
2023-05-18T10:23:36.016Z,22.10
2023-05-18T10:26:45.228Z,22.10
2023-05-18T10:29:54.651Z,22.10
2023-05-18T10:33:03.026Z,22.10
2023-05-18T10:36:13.331Z,22.10
2023-05-18T10:39:21.078Z,22.10
2023-05-18T10:42:30.661Z,22.10
2023-05-18T10:45:38.696Z,22.10
2023-05-18T10:48:48.029Z,22.10
2023-05-18T10:51:56.264Z,22.10
2023-05-18T10:55:04.658Z,22.10
2023-05-18T10:58:15.789Z,22.10
2023-05-18T11:01:23.673Z,22.10
2023-05-18T11:04:32.000Z,22.10
2023-05-18T11:07:40.287Z,22.10
2023-05-18T11:10:48.275Z,22.10
2023-05-18T11:14:01.346Z,22.10
2023-05-18T11:17:22.273Z,22.00
2023-05-18T11:20:30.243Z,22.00
2023-05-18T11:23:38.100Z,22.10
2023-05-18T11:26:48.093Z,22.10
2023-05-18T11:30:11.633Z,22.10
2023-05-18T11:33:28.250Z,22.00
2023-05-18T11:36:37.326Z,22.00
2023-05-18T11:39:59.674Z,22.10
2023-05-18T11:43:08.639Z,22.10
2023-05-18T11:46:20.628Z,22.10
2023-05-18T11:49:30.925Z,22.10
2023-05-18T11:52:46.487Z,22.10
2023-05-18T11:55:54.820Z,22.00
2023-05-18T11:59:15.968Z,22.00
2023-05-18T12:02:26.806Z,22.00
2023-05-18T12:05:35.683Z,22.00
2023-05-18T12:08:44.721Z,22.00
2023-05-18T12:11:52.817Z,22.00
2023-05-18T12:15:01.440Z,22.00
2023-05-18T12:18:11.467Z,22.00
2023-05-18T12:21:22.786Z,22.00
2023-05-18T12:24:30.585Z,22.00
2023-05-18T12:27:40.003Z,22.00
2023-05-18T12:30:47.981Z,22.00
2023-05-18T12:33:59.198Z,22.00
2023-05-18T12:37:07.779Z,22.00
2023-05-18T12:40:17.336Z,22.00
2023-05-18T12:43:26.514Z,22.00
2023-05-18T12:46:34.904Z,22.00
2023-05-18T12:49:44.874Z,22.00
2023-05-18T12:52:52.717Z,22.00
2023-05-18T12:56:01.603Z,22.00
2023-05-18T12:59:09.681Z,22.00
2023-05-18T13:02:31.512Z,22.00
2023-05-18T13:05:41.856Z,22.00
2023-05-18T13:08:49.763Z,22.00
2023-05-18T13:12:07.257Z,22.00
2023-05-18T13:15:17.229Z,22.00
2023-05-18T13:18:25.493Z,22.00
2023-05-18T13:21:35.619Z,22.00
2023-05-18T13:24:46.588Z,22.00
2023-05-18T13:27:54.900Z,22.00
2023-05-18T13:31:03.096Z,22.00
2023-05-18T13:34:11.427Z,22.00
2023-05-18T13:37:21.235Z,22.00
2023-05-18T13:40:29.443Z,22.00
2023-05-18T13:43:37.334Z,22.00
2023-05-18T13:46:45.310Z,22.00
2023-05-18T13:49:53.138Z,22.00
2023-05-18T13:53:02.643Z,22.00
2023-05-18T13:56:10.726Z,22.00
2023-05-18T13:59:19.516Z,22.00
2023-05-18T14:02:27.733Z,22.00
2023-05-18T14:05:35.536Z,22.00
2023-05-18T14:08:44.696Z,22.10
2023-05-18T14:11:53.908Z,22.10
2023-05-18T14:15:02.251Z,22.10
2023-05-18T14:18:10.216Z,22.10
2023-05-18T14:21:18.449Z,22.00
2023-05-18T14:24:27.680Z,22.10
2023-05-18T14:27:35.907Z,22.10
2023-05-18T14:30:43.931Z,22.10
2023-05-18T14:33:51.798Z,22.10
2023-05-18T14:36:59.711Z,22.10
2023-05-18T14:40:10.722Z,22.10
2023-05-18T14:43:18.544Z,22.10
2023-05-18T14:46:26.670Z,22.10
2023-05-18T14:49:34.781Z,22.10
2023-05-18T14:52:42.429Z,22.10
2023-05-18T14:55:51.631Z,22.10
2023-05-18T14:58:59.405Z,22.10
2023-05-18T15:02:08.596Z,22.10
2023-05-18T15:05:16.517Z,22.10
2023-05-18T15:08:24.416Z,22.10
2023-05-18T15:11:33.517Z,22.10
2023-05-18T15:14:41.467Z,22.10
2023-05-18T15:17:49.454Z,22.10
2023-05-18T15:20:57.303Z,22.10
2023-05-18T15:24:05.745Z,22.10
2023-05-18T15:27:15.106Z,22.10
2023-05-18T15:30:23.463Z,22.10
2023-05-18T15:33:31.817Z,22.10
2023-05-18T15:36:39.853Z,22.10
2023-05-18T15:39:48.146Z,22.10
2023-05-18T15:42:57.592Z,22.10
2023-05-18T15:46:05.624Z,22.10
2023-05-18T15:49:13.593Z,22.10
2023-05-18T15:52:21.498Z,22.10
2023-05-18T15:55:29.418Z,22.10
2023-05-18T15:58:38.630Z,22.10
2023-05-18T16:01:46.556Z,22.10
2023-05-18T16:04:54.418Z,22.10
2023-05-18T16:08:02.575Z,22.10
2023-05-18T16:11:10.689Z,22.10
2023-05-18T16:14:19.802Z,22.10
2023-05-18T16:17:27.712Z,22.10
2023-05-18T16:20:35.763Z,22.10
2023-05-18T16:23:43.717Z,22.00
2023-05-18T16:26:51.843Z,22.00
2023-05-18T16:30:01.376Z,22.00
2023-05-18T16:33:09.193Z,22.00
2023-05-18T16:36:17.195Z,21.90
2023-05-18T16:39:27.171Z,21.90
2023-05-18T16:42:35.196Z,21.80
2023-05-18T16:45:44.563Z,21.80
2023-05-18T16:48:52.778Z,21.80
2023-05-18T16:52:00.973Z,21.80
2023-05-18T16:55:09.868Z,21.70
2023-05-18T16:58:17.946Z,21.70
2023-05-18T17:01:28.929Z,21.70
2023-05-18T17:04:37.231Z,21.70
2023-05-18T17:07:45.439Z,21.70
2023-05-18T17:10:53.540Z,21.70
2023-05-18T17:14:01.770Z,21.60
2023-05-18T17:17:11.258Z,21.60
2023-05-18T17:20:19.181Z,21.60
2023-05-18T17:23:27.237Z,21.60
2023-05-18T17:26:35.121Z,21.60
2023-05-18T17:29:43.248Z,21.60
2023-05-18T17:32:52.694Z,21.60
2023-05-18T17:36:00.689Z,21.60
2023-05-18T17:39:08.629Z,21.60
2023-05-18T17:42:16.377Z,21.70
2023-05-18T17:45:24.430Z,21.70
2023-05-18T17:48:33.698Z,21.70
2023-05-18T17:51:41.398Z,21.70
2023-05-18T17:54:52.161Z,21.80
2023-05-18T17:58:02.372Z,21.80
2023-05-18T18:01:10.614Z,21.80
2023-05-18T18:04:20.182Z,21.70
2023-05-18T18:07:28.534Z,21.80
2023-05-18T18:10:36.551Z,21.80
2023-05-18T18:13:44.572Z,21.80
2023-05-18T18:16:52.935Z,21.70
2023-05-18T18:20:02.413Z,21.70
2023-05-18T18:23:10.312Z,21.70
2023-05-18T18:26:18.799Z,21.60
2023-05-18T18:29:29.722Z,21.60
2023-05-18T18:32:37.822Z,21.60
2023-05-18T18:35:47.343Z,21.60
2023-05-18T18:38:55.290Z,21.50
2023-05-18T18:42:03.124Z,21.50
2023-05-18T18:45:12.118Z,21.40
2023-05-18T18:48:21.383Z,21.40
2023-05-18T18:51:31.233Z,21.40
2023-05-18T18:54:39.265Z,21.40
2023-05-18T18:57:47.266Z,21.40
2023-05-18T19:00:55.135Z,21.40
2023-05-18T19:04:03.249Z,21.40
2023-05-18T19:07:12.586Z,21.40
2023-05-18T19:10:20.699Z,21.40
2023-05-18T19:13:28.603Z,21.40
2023-05-18T19:16:36.696Z,21.40
2023-05-18T19:19:44.685Z,21.40
2023-05-18T19:22:54.178Z,21.40
2023-05-18T19:26:02.452Z,21.40
2023-05-18T19:29:10.359Z,21.30
2023-05-18T19:32:18.322Z,21.40
2023-05-18T19:35:26.231Z,21.40
2023-05-18T19:38:35.408Z,21.40
2023-05-18T19:41:43.417Z,21.40
2023-05-18T19:44:51.266Z,21.40
2023-05-18T19:47:59.427Z,21.40
2023-05-18T19:51:07.723Z,21.40
2023-05-18T19:54:17.107Z,21.40
2023-05-18T19:57:26.408Z,21.50
2023-05-18T20:00:34.250Z,21.50
2023-05-18T20:03:43.462Z,21.50
2023-05-18T20:06:52.036Z,21.50
2023-05-18T20:10:01.631Z,21.50
2023-05-18T20:13:09.644Z,21.50
2023-05-18T20:16:18.550Z,21.50
2023-05-18T20:19:27.588Z,21.50
2023-05-18T20:22:35.755Z,21.50
2023-05-18T20:25:48.003Z,21.60
2023-05-18T20:28:55.850Z,21.60
2023-05-18T20:32:03.704Z,21.60
2023-05-18T20:35:12.728Z,21.60
2023-05-18T20:38:20.670Z,21.60
2023-05-18T20:41:30.093Z,21.60
2023-05-18T20:44:38.385Z,21.60
2023-05-18T20:47:47.355Z,21.50
2023-05-18T20:50:55.291Z,21.60
2023-05-18T20:54:03.140Z,21.60
2023-05-18T20:57:12.493Z,21.60
2023-05-18T21:00:21.615Z,21.60
2023-05-18T21:03:30.406Z,21.60
2023-05-18T21:06:40.536Z,21.60
2023-05-18T21:09:48.952Z,21.60
2023-05-18T21:12:58.333Z,21.70
2023-05-18T21:16:08.441Z,21.70
2023-05-18T21:19:17.267Z,21.70
2023-05-18T21:22:25.430Z,21.70
2023-05-18T21:25:33.536Z,21.70
2023-05-18T21:28:43.124Z,21.70
2023-05-18T21:31:51.082Z,21.70
2023-05-18T21:34:59.359Z,21.70
2023-05-18T21:38:07.342Z,21.70
2023-05-18T21:41:15.293Z,21.80
2023-05-18T21:44:24.594Z,21.80
2023-05-18T21:47:32.744Z,21.80
2023-05-18T21:50:40.646Z,21.80
2023-05-18T21:53:48.521Z,21.80
2023-05-18T21:56:56.353Z,21.80
2023-05-18T22:00:06.348Z,21.80
2023-05-18T22:03:21.708Z,21.80
2023-05-18T22:06:29.816Z,21.80
2023-05-18T22:09:37.638Z,21.90
2023-05-18T22:12:45.963Z,21.90
2023-05-18T22:15:55.271Z,21.90
2023-05-18T22:19:03.430Z,21.90
2023-05-18T22:22:16.519Z,21.80
2023-05-18T22:25:31.358Z,21.80
2023-05-18T22:28:39.389Z,21.80
2023-05-18T22:31:48.650Z,21.90
2023-05-18T22:34:56.981Z,21.90
2023-05-18T22:38:05.009Z,21.90
2023-05-18T22:41:12.883Z,21.90
2023-05-18T22:44:20.848Z,21.90
2023-05-18T22:47:30.600Z,21.90
2023-05-18T22:50:38.494Z,21.90
2023-05-18T22:53:46.466Z,21.90
2023-05-18T22:56:54.392Z,21.80
2023-05-18T23:00:02.195Z,21.90
2023-05-18T23:03:11.441Z,21.80
2023-05-18T23:06:22.357Z,21.90
2023-05-18T23:09:30.704Z,21.80
2023-05-18T23:12:39.529Z,21.80
2023-05-18T23:15:47.916Z,21.80
2023-05-18T23:18:58.635Z,21.80
2023-05-18T23:22:06.830Z,21.80
2023-05-18T23:25:14.695Z,21.80
2023-05-18T23:28:22.894Z,21.80
2023-05-18T23:31:31.379Z,21.80
2023-05-18T23:34:41.392Z,21.80
2023-05-18T23:37:50.177Z,21.80
2023-05-18T23:40:58.537Z,21.80
2023-05-18T23:44:07.822Z,21.80
2023-05-18T23:47:16.555Z,21.80
2023-05-18T23:50:26.501Z,21.70
2023-05-18T23:53:34.790Z,21.70
2023-05-18T23:56:43.436Z,21.70
2023-05-18T23:59:51.904Z,21.70
